createdAt,value
2022-11-22T00:01:20.794Z,93.64
2022-11-22T00:03:47.230Z,93.39
2022-11-22T00:06:13.602Z,93.63
2022-11-22T00:08:40.001Z,93.12
2022-11-22T00:11:06.446Z,93.12
2022-11-22T00:13:32.842Z,92.99
2022-11-22T00:16:03.375Z,92.72
2022-11-22T00:18:29.838Z,92.75
2022-11-22T00:20:56.497Z,92.29
2022-11-22T00:23:22.949Z,91.82
2022-11-22T00:25:49.385Z,92.10
2022-11-22T00:28:15.770Z,91.80
2022-11-22T00:30:42.173Z,92.10
2022-11-22T00:33:08.571Z,91.61
2022-11-22T00:35:35.146Z,91.36
2022-11-22T00:38:01.596Z,91.37
2022-11-22T00:40:27.978Z,91.95
2022-11-22T00:42:54.491Z,91.96
2022-11-22T00:45:20.934Z,92.22
2022-11-22T00:47:47.372Z,92.27
2022-11-22T00:50:13.787Z,92.42
2022-11-22T00:52:40.274Z,92.61
2022-11-22T00:55:07.135Z,92.36
2022-11-22T00:57:33.514Z,92.29
2022-11-22T01:00:00.129Z,92.45
2022-11-22T01:02:26.556Z,92.73
2022-11-22T01:04:53.081Z,92.66
2022-11-22T01:07:19.862Z,92.91
2022-11-22T01:09:46.309Z,92.91
2022-11-22T01:12:12.692Z,93.85
2022-11-22T01:14:39.354Z,94.14
2022-11-22T01:17:05.749Z,94.05
2022-11-22T01:19:32.463Z,93.78
2022-11-22T01:21:59.047Z,93.60
2022-11-22T01:24:25.453Z,93.42
2022-11-22T01:26:51.833Z,93.70
2022-11-22T01:29:18.258Z,93.35
2022-11-22T01:31:44.818Z,93.27
2022-11-22T01:34:11.218Z,93.27
2022-11-22T01:36:37.623Z,93.28
2022-11-22T01:39:04.078Z,93.11
2022-11-22T01:41:30.879Z,93.37
2022-11-22T01:43:57.591Z,93.42
2022-11-22T01:46:37.399Z,93.45
2022-11-22T01:49:07.464Z,93.78
2022-11-22T01:51:41.211Z,93.74
2022-11-22T01:54:13.557Z,94.19
2022-11-22T01:56:42.484Z,94.01
2022-11-22T01:59:12.623Z,93.69
2022-11-22T02:01:39.223Z,93.74
2022-11-22T02:04:06.692Z,93.79
2022-11-22T02:06:41.535Z,94.44
2022-11-22T02:09:11.646Z,94.32
2022-11-22T02:11:40.127Z,94.29
2022-11-22T02:14:08.200Z,94.26
2022-11-22T02:16:35.034Z,94.27
2022-11-22T02:19:01.623Z,94.11
2022-11-22T02:21:28.977Z,93.84
2022-11-22T02:24:19.667Z,94.02
2022-11-22T02:26:46.116Z,94.20
2022-11-22T02:29:13.709Z,94.19
2022-11-22T02:31:40.134Z,94.72
2022-11-22T02:34:07.061Z,94.66
2022-11-22T02:36:34.945Z,94.49
2022-11-22T02:39:01.347Z,94.66
2022-11-22T02:41:27.895Z,94.89
2022-11-22T02:43:54.470Z,94.80
2022-11-22T02:46:22.667Z,94.98
2022-11-22T02:48:49.562Z,95.04
2022-11-22T02:51:19.584Z,95.18
2022-11-22T02:53:47.261Z,95.05
2022-11-22T02:56:14.034Z,94.99
2022-11-22T02:58:40.466Z,95.44
2022-11-22T03:01:06.968Z,95.17
2022-11-22T03:03:33.506Z,95.37
2022-11-22T03:05:59.941Z,95.08
2022-11-22T03:08:26.420Z,95.47
2022-11-22T03:10:52.850Z,95.50
2022-11-22T03:13:19.446Z,95.38
2022-11-22T03:15:48.643Z,95.81
2022-11-22T03:18:15.259Z,97.17
2022-11-22T03:20:41.689Z,96.71
2022-11-22T03:23:08.085Z,97.28
2022-11-22T03:25:37.374Z,97.19
2022-11-22T03:28:03.793Z,98.05
2022-11-22T03:30:30.333Z,98.94
2022-11-22T03:32:56.723Z,98.73
2022-11-22T03:35:23.308Z,98.41
2022-11-22T03:37:49.882Z,99.09
2022-11-22T03:40:16.355Z,98.27
2022-11-22T03:42:42.729Z,99.11
2022-11-22T03:45:09.357Z,99.31
2022-11-22T03:47:35.785Z,99.41
2022-11-22T03:50:02.195Z,99.31
2022-11-22T03:52:29.585Z,99.27
2022-11-22T03:54:56.369Z,98.85
2022-11-22T03:57:22.990Z,98.63
2022-11-22T03:59:49.390Z,99.24
2022-11-22T04:02:17.044Z,99.03
2022-11-22T04:04:43.646Z,99.10
2022-11-22T04:07:10.046Z,99.42
2022-11-22T04:09:36.565Z,99.96
2022-11-22T04:12:03.168Z,99.80
2022-11-22T04:14:48.041Z,99.67
2022-11-22T04:17:34.983Z,99.60
2022-11-22T04:20:20.118Z,100.00
2022-11-22T04:22:54.734Z,99.75
2022-11-22T04:25:21.103Z,99.91
2022-11-22T04:27:47.488Z,99.86
2022-11-22T04:30:20.084Z,99.75
2022-11-22T04:32:46.987Z,99.50
2022-11-22T04:35:14.603Z,100.00
2022-11-22T04:37:41.295Z,100.00
2022-11-22T04:40:08.135Z,100.00
2022-11-22T04:42:53.555Z,100.00
2022-11-22T04:45:19.950Z,100.00
2022-11-22T04:47:59.041Z,100.00
2022-11-22T04:50:44.609Z,100.00
2022-11-22T04:53:11.023Z,100.00
2022-11-22T04:55:37.497Z,100.00
2022-11-22T04:58:03.910Z,100.00
2022-11-22T05:00:30.944Z,99.99
2022-11-22T05:02:58.054Z,99.95
2022-11-22T05:05:24.767Z,99.89
2022-11-22T05:07:51.353Z,99.57
2022-11-22T05:10:21.422Z,99.12
2022-11-22T05:12:51.057Z,98.69
2022-11-22T05:15:17.548Z,98.89
2022-11-22T05:17:43.975Z,98.42
2022-11-22T05:20:10.765Z,98.03
2022-11-22T05:22:56.029Z,98.24
2022-11-22T05:25:25.453Z,98.08
2022-11-22T05:27:55.421Z,97.54
2022-11-22T05:30:22.054Z,98.10
2022-11-22T05:32:48.453Z,97.35
2022-11-22T05:35:14.945Z,97.28
2022-11-22T05:37:41.406Z,97.52
2022-11-22T05:40:08.183Z,96.92
2022-11-22T05:42:34.630Z,97.34
2022-11-22T05:45:01.026Z,97.85
2022-11-22T05:47:27.632Z,98.03
2022-11-22T05:49:54.023Z,97.85
2022-11-22T05:52:20.397Z,97.61
2022-11-22T05:54:46.841Z,97.23
2022-11-22T05:57:13.299Z,97.28
2022-11-22T05:59:43.926Z,97.60
2022-11-22T06:02:10.925Z,97.44
2022-11-22T06:04:37.528Z,97.37
2022-11-22T06:07:09.563Z,97.04
2022-11-22T06:09:36.366Z,96.92
2022-11-22T06:12:02.784Z,97.39
2022-11-22T06:14:29.174Z,97.26
2022-11-22T06:16:55.632Z,96.88
2022-11-22T06:19:22.073Z,97.11
2022-11-22T06:21:48.470Z,97.15
2022-11-22T06:24:14.916Z,97.20
2022-11-22T06:26:41.508Z,97.58
2022-11-22T06:29:07.989Z,97.85
2022-11-22T06:31:34.506Z,98.09
2022-11-22T06:34:00.907Z,97.84
2022-11-22T06:36:31.381Z,98.23
2022-11-22T06:38:58.160Z,97.81
2022-11-22T06:41:25.949Z,97.98
2022-11-22T06:43:53.554Z,97.40
2022-11-22T06:46:21.527Z,97.55
2022-11-22T06:48:48.274Z,97.50
2022-11-22T06:51:14.660Z,97.41
2022-11-22T06:53:49.152Z,97.17
2022-11-22T06:56:16.119Z,96.93
2022-11-22T06:58:43.021Z,96.64
2022-11-22T07:01:10.684Z,96.67
2022-11-22T07:03:37.831Z,96.87
2022-11-22T07:06:04.349Z,97.08
2022-11-22T07:08:31.094Z,97.33
2022-11-22T07:11:04.744Z,96.87
2022-11-22T07:13:31.375Z,96.95
2022-11-22T07:15:58.362Z,97.18
2022-11-22T07:18:25.407Z,96.89
2022-11-22T07:20:51.835Z,97.28
2022-11-22T07:23:18.444Z,97.15
2022-11-22T07:25:48.723Z,97.00
2022-11-22T07:28:15.869Z,96.95
2022-11-22T07:30:44.140Z,97.27
2022-11-22T07:33:10.922Z,97.06
2022-11-22T07:35:37.341Z,97.41
2022-11-22T07:38:04.079Z,97.15
2022-11-22T07:40:30.542Z,97.34
2022-11-22T07:42:58.557Z,96.75
2022-11-22T07:45:25.262Z,96.17
2022-11-22T07:47:51.707Z,96.26
2022-11-22T07:50:18.101Z,96.19
2022-11-22T07:52:44.669Z,96.40
2022-11-22T07:55:14.194Z,96.44
2022-11-22T07:57:41.080Z,96.71
2022-11-22T08:00:07.779Z,96.70
2022-11-22T08:02:34.212Z,96.68
2022-11-22T08:05:00.616Z,96.69
2022-11-22T08:07:27.048Z,96.30
2022-11-22T08:09:53.454Z,96.75
2022-11-22T08:12:19.864Z,96.46
2022-11-22T08:14:46.324Z,96.12
2022-11-22T08:17:12.725Z,96.55
2022-11-22T08:19:39.385Z,96.22
2022-11-22T08:22:05.775Z,95.85
2022-11-22T08:24:32.985Z,95.63
2022-11-22T08:26:59.482Z,95.76
2022-11-22T08:29:25.955Z,95.90
2022-11-22T08:31:52.379Z,95.50
2022-11-22T08:34:18.940Z,95.49
2022-11-22T08:36:45.555Z,95.51
2022-11-22T08:39:11.955Z,94.96
2022-11-22T08:41:38.338Z,94.81
2022-11-22T08:44:04.873Z,95.15
2022-11-22T08:46:31.621Z,95.02
2022-11-22T08:48:58.285Z,94.90
2022-11-22T08:51:24.980Z,95.05
2022-11-22T08:53:51.425Z,94.79
2022-11-22T08:56:17.904Z,94.97
2022-11-22T08:58:44.417Z,95.36
2022-11-22T09:01:14.674Z,95.18
2022-11-22T09:03:42.161Z,95.40
2022-11-22T09:09:15.609Z,95.55
2022-11-22T09:11:45.678Z,94.95
2022-11-22T09:14:12.117Z,95.04
2022-11-22T09:16:38.506Z,95.07
2022-11-22T09:19:04.997Z,94.62
2022-11-22T09:21:31.435Z,94.63
2022-11-22T09:23:58.036Z,94.10
2022-11-22T09:26:25.287Z,94.27
2022-11-22T09:28:53.447Z,94.33
2022-11-22T09:31:20.573Z,93.79
2022-11-22T09:33:49.327Z,94.02
2022-11-22T09:36:19.811Z,94.79
2022-11-22T09:38:46.275Z,94.59
2022-11-22T09:41:15.548Z,94.66
2022-11-22T09:43:41.898Z,94.80
2022-11-22T09:46:08.307Z,95.15
2022-11-22T09:48:36.273Z,95.05
2022-11-22T09:51:14.966Z,95.75
2022-11-22T09:53:54.391Z,96.80
2022-11-22T09:56:24.246Z,96.54
2022-11-22T09:58:55.810Z,95.70
2022-11-22T10:01:34.611Z,95.94
2022-11-22T10:04:03.457Z,95.95
2022-11-22T10:06:43.476Z,96.28
2022-11-22T10:09:22.082Z,96.06
2022-11-22T10:11:53.216Z,96.33
2022-11-22T10:14:27.125Z,96.86
2022-11-22T10:16:57.701Z,97.23
2022-11-22T10:19:29.907Z,97.17
2022-11-22T10:21:56.572Z,96.55
2022-11-22T10:24:22.943Z,96.81
2022-11-22T10:26:49.998Z,97.36
2022-11-22T10:29:23.333Z,98.30
2022-11-22T10:31:53.783Z,98.24
2022-11-22T10:34:39.152Z,97.82
2022-11-22T10:37:14.302Z,97.24
2022-11-22T10:39:40.786Z,97.02
2022-11-22T10:42:26.223Z,97.09
2022-11-22T10:45:02.519Z,96.84
2022-11-22T10:47:43.138Z,97.66
2022-11-22T10:50:12.462Z,97.25
2022-11-22T10:52:39.020Z,97.02
2022-11-22T10:55:23.334Z,97.44
2022-11-22T10:57:49.673Z,97.77
2022-11-22T11:00:24.937Z,97.31
2022-11-22T11:03:10.040Z,97.91
2022-11-22T11:06:07.951Z,97.64
2022-11-22T11:09:02.824Z,97.02
2022-11-22T11:11:24.581Z,97.26
2022-11-22T11:13:53.035Z,97.38
2022-11-22T11:16:21.499Z,97.35
2022-11-22T11:18:51.304Z,97.25
2022-11-22T11:21:17.719Z,96.68
2022-11-22T11:23:44.191Z,96.67
2022-11-22T11:26:30.966Z,96.04
2022-11-22T11:29:16.843Z,95.60
2022-11-22T11:31:44.046Z,95.41
2022-11-22T11:34:22.402Z,96.06
2022-11-22T11:36:50.221Z,96.38
2022-11-22T11:39:44.838Z,96.45
2022-11-22T11:42:22.034Z,95.84
2022-11-22T11:44:48.522Z,95.81
2022-11-22T11:47:34.141Z,95.39
2022-11-22T11:50:00.860Z,95.22
2022-11-22T11:52:28.754Z,95.38
2022-11-22T11:54:57.800Z,95.31
2022-11-22T11:57:31.466Z,94.99
2022-11-22T11:59:59.466Z,94.63
2022-11-22T12:02:41.999Z,94.25
2022-11-22T12:05:11.482Z,94.80
2022-11-22T12:07:39.219Z,94.94
2022-11-22T12:10:29.707Z,94.50
2022-11-22T12:13:04.045Z,95.09
2022-11-22T12:15:33.918Z,94.77
2022-11-22T12:18:07.076Z,94.47
2022-11-22T12:20:46.384Z,93.83
2022-11-22T12:23:32.447Z,93.80
2022-11-22T12:25:59.227Z,94.24
2022-11-22T12:28:27.706Z,94.37
2022-11-22T12:30:56.945Z,94.37
2022-11-22T12:33:29.894Z,94.27
2022-11-22T12:35:56.817Z,94.47
2022-11-22T12:38:34.221Z,94.72
2022-11-22T12:41:03.261Z,94.41
2022-11-22T12:43:33.375Z,93.64
2022-11-22T12:46:03.425Z,93.39
2022-11-22T12:48:35.261Z,93.53
2022-11-22T12:51:21.923Z,94.18
2022-11-22T12:53:48.895Z,94.72
2022-11-22T12:56:29.832Z,94.05
2022-11-22T12:59:19.235Z,94.04
2022-11-22T13:01:49.457Z,93.49
2022-11-22T13:04:36.205Z,93.36
2022-11-22T13:07:25.706Z,92.92
2022-11-22T13:10:00.007Z,93.29
2022-11-22T13:12:34.327Z,93.09
2022-11-22T13:15:01.907Z,93.19
2022-11-22T13:17:33.438Z,93.51
2022-11-22T13:20:03.236Z,92.83
2022-11-22T13:22:38.456Z,93.50
2022-11-22T13:25:04.812Z,93.70
2022-11-22T13:27:41.030Z,92.74
2022-11-22T13:30:17.426Z,93.19
2022-11-22T13:32:43.856Z,92.89
2022-11-22T13:35:13.003Z,92.89
2022-11-22T13:37:41.596Z,93.03
2022-11-22T13:40:18.719Z,94.04
2022-11-22T13:42:45.172Z,93.90
2022-11-22T13:45:22.032Z,93.19
2022-11-22T13:47:48.701Z,93.61
2022-11-22T13:50:33.627Z,93.31
2022-11-22T13:53:15.791Z,92.97
2022-11-22T13:55:42.866Z,92.67
2022-11-22T13:58:24.415Z,93.26
2022-11-22T14:00:54.931Z,93.78
2022-11-22T14:03:32.370Z,94.42
2022-11-22T14:05:58.960Z,94.70
2022-11-22T14:08:30.551Z,96.29
2022-11-22T14:10:56.917Z,96.73
2022-11-22T14:13:23.269Z,97.05
2022-11-22T14:15:49.653Z,97.66
2022-11-22T14:18:34.836Z,97.22
2022-11-22T14:21:05.396Z,97.86
2022-11-22T14:23:50.818Z,97.97
2022-11-22T14:26:19.958Z,97.88
2022-11-22T14:29:11.392Z,97.85
2022-11-22T14:31:50.679Z,97.78
2022-11-22T14:34:19.652Z,97.62
2022-11-22T14:37:06.089Z,97.53
2022-11-22T14:39:44.834Z,97.37
2022-11-22T14:42:29.790Z,97.11
2022-11-22T14:44:56.293Z,97.11
2022-11-22T14:47:22.977Z,97.31
2022-11-22T14:49:51.163Z,97.09
2022-11-22T14:52:25.308Z,97.15
2022-11-22T14:54:56.703Z,96.43
2022-11-22T14:57:25.200Z,96.71
2022-11-22T15:00:04.261Z,96.04
2022-11-22T15:02:36.926Z,96.78
2022-11-22T15:09:13.828Z,96.69
2022-11-22T15:09:22.566Z,96.79
2022-11-22T15:11:26.659Z,97.27
2022-11-22T15:14:00.404Z,97.62
2022-11-22T15:59:39.532Z,96.44
2022-11-22T16:02:33.300Z,95.54
2022-11-22T16:06:04.696Z,95.47
2022-11-22T16:07:55.405Z,95.82
2022-11-22T16:10:22.987Z,95.48
2022-11-22T16:12:50.143Z,96.05
2022-11-22T16:15:19.644Z,96.12
2022-11-22T16:17:55.053Z,96.62
2022-11-22T16:20:28.024Z,95.86
2022-11-22T16:23:09.512Z,96.12
2022-11-22T16:25:37.466Z,96.34
2022-11-22T16:28:18.923Z,95.69
2022-11-22T16:30:45.644Z,96.05
2022-11-22T16:33:12.282Z,96.21
2022-11-22T16:35:38.989Z,96.61
2022-11-22T16:38:07.161Z,97.03
2022-11-22T16:40:39.129Z,96.63
2022-11-22T16:43:13.575Z,97.16
2022-11-22T16:45:40.730Z,97.38
2022-11-22T16:48:31.222Z,97.84
2022-11-22T16:50:59.649Z,98.11
2022-11-22T16:53:26.787Z,97.37
2022-11-22T16:55:53.185Z,97.30
2022-11-22T16:58:21.763Z,97.61
2022-11-22T17:00:48.824Z,97.71
2022-11-22T17:03:18.143Z,98.10
2022-11-22T17:05:44.596Z,97.77
2022-11-22T17:08:15.505Z,98.10
2022-11-22T17:10:43.680Z,98.61
2022-11-22T17:13:14.370Z,98.11
2022-11-22T17:15:42.202Z,97.74
2022-11-22T17:18:08.593Z,97.55
2022-11-22T17:20:35.601Z,98.40
2022-11-22T17:23:02.924Z,97.35
2022-11-22T17:25:29.310Z,98.08
2022-11-22T17:27:55.767Z,98.01
2022-11-22T17:30:22.227Z,97.34
2022-11-22T17:32:48.610Z,97.46
2022-11-22T17:35:15.002Z,97.72
2022-11-22T17:37:41.385Z,97.10
2022-11-22T17:40:09.030Z,97.06
2022-11-22T17:42:40.750Z,97.56
2022-11-22T17:45:07.832Z,97.06
2022-11-22T17:47:35.725Z,96.73
2022-11-22T17:50:02.139Z,97.44
2022-11-22T17:52:28.637Z,97.52
2022-11-22T17:54:55.063Z,97.12
2022-11-22T17:57:21.441Z,97.28
2022-11-22T17:59:47.897Z,96.79
2022-11-22T18:02:14.435Z,97.16
2022-11-22T18:04:42.600Z,96.58
2022-11-22T18:07:09.034Z,96.94
2022-11-22T18:09:35.548Z,97.40
2022-11-22T18:12:02.049Z,96.75
2022-11-22T18:14:30.618Z,96.43
2022-11-22T18:16:57.640Z,96.07
2022-11-22T18:19:24.051Z,95.55
2022-11-22T18:21:50.475Z,94.85
2022-11-22T18:24:16.861Z,94.75
2022-11-22T18:26:43.259Z,95.37
2022-11-22T18:29:41.217Z,94.60
2022-11-22T18:31:57.166Z,94.48
2022-11-22T18:34:23.672Z,94.38
2022-11-22T18:37:01.920Z,93.79
2022-11-22T18:39:34.265Z,94.28
2022-11-22T18:42:01.371Z,94.06
2022-11-22T18:44:27.815Z,93.75
2022-11-22T18:46:54.209Z,93.38
2022-11-22T18:49:20.672Z,93.42
2022-11-22T18:51:47.117Z,93.83
2022-11-22T18:54:13.583Z,93.79
2022-11-22T18:56:40.882Z,94.02
2022-11-22T18:59:08.081Z,93.80
2022-11-22T19:01:34.769Z,94.26
2022-11-22T19:04:01.703Z,93.82
2022-11-22T19:06:28.077Z,93.85
2022-11-22T19:08:55.371Z,94.40
2022-11-22T19:11:21.851Z,93.83
2022-11-22T19:13:48.222Z,93.91
2022-11-22T19:16:16.063Z,93.55
2022-11-22T19:18:43.327Z,94.04
2022-11-22T19:21:11.111Z,94.08
2022-11-22T19:23:37.910Z,93.26
2022-11-22T19:26:05.794Z,93.76
2022-11-22T19:28:32.648Z,93.22
2022-11-22T19:31:01.980Z,93.21
2022-11-22T19:33:28.550Z,93.26
2022-11-22T19:35:56.114Z,93.55
2022-11-22T19:38:22.599Z,93.55
2022-11-22T19:40:48.994Z,92.80
2022-11-22T19:43:16.617Z,92.64
2022-11-22T19:45:43.382Z,92.74
2022-11-22T19:48:09.771Z,92.84
2022-11-22T19:50:39.203Z,92.21
2022-11-22T19:53:05.925Z,92.77
2022-11-22T19:55:35.825Z,92.53
2022-11-22T19:58:02.479Z,92.20
2022-11-22T20:00:29.913Z,91.70
2022-11-22T20:02:56.501Z,92.40
2022-11-22T20:05:22.997Z,92.22
2022-11-22T20:07:49.410Z,91.70
2022-11-22T20:10:15.954Z,91.89
2022-11-22T20:12:45.679Z,91.43
2022-11-22T20:15:12.062Z,91.65
2022-11-22T20:17:38.488Z,91.53
2022-11-22T20:20:05.633Z,91.41
2022-11-22T20:22:32.009Z,91.31
2022-11-22T20:24:59.139Z,90.96
2022-11-22T20:27:25.731Z,91.34
2022-11-22T20:29:52.121Z,91.42
2022-11-22T20:32:18.643Z,91.17
2022-11-22T20:34:45.059Z,91.24
2022-11-22T20:37:11.432Z,90.93
2022-11-22T20:39:37.928Z,90.82
2022-11-22T20:42:32.654Z,90.93
2022-11-22T20:44:51.070Z,90.55
2022-11-22T20:47:17.530Z,90.83
2022-11-22T20:49:45.613Z,90.91
2022-11-22T20:52:12.221Z,90.70
2022-11-22T20:54:38.660Z,90.49
2022-11-22T20:57:05.116Z,90.50
2022-11-22T20:59:31.500Z,90.46
2022-11-22T21:01:57.915Z,90.46
2022-11-22T21:04:24.394Z,90.47
2022-11-22T21:06:50.752Z,90.34
2022-11-22T21:09:17.162Z,90.30
2022-11-22T21:11:45.296Z,90.40
2022-11-22T21:14:12.142Z,90.25
2022-11-22T21:16:38.739Z,90.04
2022-11-22T21:19:05.276Z,89.86
2022-11-22T21:21:33.140Z,89.82
2022-11-22T21:24:00.838Z,89.65
2022-11-22T21:26:27.871Z,89.53
2022-11-22T21:28:54.566Z,89.92
2022-11-22T21:31:21.864Z,90.28
2022-11-22T21:33:48.608Z,90.14
2022-11-22T21:36:15.075Z,89.51
2022-11-22T21:38:41.465Z,89.63
2022-11-22T21:41:38.034Z,89.56
2022-11-22T21:43:56.957Z,89.76
2022-11-22T21:46:24.310Z,90.01
2022-11-22T21:48:51.770Z,89.60
2022-11-22T21:51:18.212Z,89.51
2022-11-22T21:53:44.618Z,89.53
2022-11-22T21:56:11.074Z,89.39
2022-11-22T21:58:37.507Z,89.31
2022-11-22T22:01:09.520Z,89.28
2022-11-22T22:03:37.482Z,89.34
2022-11-22T22:06:04.021Z,89.45
2022-11-22T22:08:30.457Z,89.44
2022-11-22T22:11:02.528Z,89.78
2022-11-22T22:13:30.789Z,89.98
2022-11-22T22:15:58.419Z,89.90
2022-11-22T22:18:29.347Z,89.50
2022-11-22T22:20:59.726Z,90.04
2022-11-22T22:23:26.259Z,90.36
2022-11-22T22:25:56.734Z,90.65
2022-11-22T22:28:24.144Z,90.30
2022-11-22T22:30:50.594Z,90.34
2022-11-22T22:33:17.011Z,90.81
2022-11-22T22:35:43.407Z,90.61
2022-11-22T22:38:09.771Z,90.51
2022-11-22T22:40:36.120Z,90.94
2022-11-22T22:43:02.671Z,90.90
2022-11-22T22:45:29.052Z,91.25
2022-11-22T22:47:55.422Z,91.11
2022-11-22T22:50:21.988Z,91.14
2022-11-22T22:52:48.565Z,91.51
2022-11-22T22:55:14.974Z,91.57
2022-11-22T22:57:41.333Z,91.42
2022-11-22T23:00:09.294Z,91.24
2022-11-22T23:02:36.860Z,91.29
2022-11-22T23:05:03.385Z,91.48
2022-11-22T23:07:29.827Z,91.24
2022-11-22T23:09:56.297Z,91.26
2022-11-22T23:12:22.754Z,91.14
2022-11-22T23:14:49.202Z,91.08
2022-11-22T23:17:15.717Z,90.94
2022-11-22T23:19:42.097Z,90.99
2022-11-22T23:22:08.479Z,91.01
2022-11-22T23:24:34.841Z,90.71
2022-11-22T23:27:01.305Z,90.72
2022-11-22T23:29:27.752Z,90.82
2022-11-22T23:31:54.187Z,90.79
2022-11-22T23:34:20.593Z,90.08
2022-11-22T23:36:47.050Z,90.50
2022-11-22T23:39:13.496Z,90.60
2022-11-22T23:41:39.938Z,90.02
2022-11-22T23:44:06.632Z,89.88
2022-11-22T23:46:33.009Z,90.00
2022-11-22T23:49:00.536Z,89.84
2022-11-22T23:51:28.169Z,89.95
2022-11-22T23:53:55.072Z,89.93
2022-11-22T23:56:22.130Z,89.71
2022-11-22T23:58:48.972Z,89.38
